createdAt,value
2023-02-01T00:00:49.632Z,85.53
2023-02-01T00:06:00.031Z,84.70
2023-02-01T00:11:07.290Z,84.00
2023-02-01T00:16:17.473Z,83.23
2023-02-01T00:21:21.720Z,82.42
2023-02-01T00:26:36.780Z,81.91
2023-02-01T00:31:40.275Z,81.42
2023-02-01T00:36:45.521Z,81.04
2023-02-01T00:41:48.781Z,80.52
2023-02-01T00:46:51.539Z,79.91
2023-02-01T00:51:54.552Z,79.36
2023-02-01T00:56:57.571Z,78.85
2023-02-01T01:02:00.503Z,78.34
2023-02-01T01:07:03.523Z,78.07
2023-02-01T01:12:06.639Z,77.94
2023-02-01T01:17:09.658Z,77.98
2023-02-01T01:22:12.752Z,77.72
2023-02-01T01:27:15.612Z,78.09
2023-02-01T01:32:18.445Z,78.19
2023-02-01T01:37:21.274Z,77.87
2023-02-01T01:42:24.202Z,77.85
2023-02-01T01:47:30.998Z,78.30
2023-02-01T01:52:34.709Z,78.32
2023-02-01T01:57:43.224Z,78.94
2023-02-01T02:02:53.763Z,79.28
2023-02-01T02:07:59.530Z,79.16
2023-02-01T02:13:02.557Z,79.43
2023-02-01T02:18:39.166Z,79.60
2023-02-01T02:24:24.664Z,79.68
2023-02-01T02:30:11.954Z,79.40
2023-02-01T02:35:39.075Z,79.25
2023-02-01T02:41:39.902Z,78.83
2023-02-01T02:47:10.243Z,78.27
2023-02-01T02:52:38.413Z,78.28
2023-02-01T02:58:03.472Z,78.29
2023-02-01T03:03:25.695Z,78.59
2023-02-01T03:08:32.041Z,78.38
2023-02-01T03:13:48.296Z,78.43
2023-02-01T03:19:00.771Z,79.08
2023-02-01T03:24:22.239Z,80.21
2023-02-01T03:29:36.132Z,80.61
2023-02-01T03:34:39.204Z,81.28
2023-02-01T03:40:08.509Z,81.43
2023-02-01T03:45:45.605Z,81.25
2023-02-01T03:50:54.553Z,81.31
2023-02-01T03:55:58.051Z,81.51
2023-02-01T04:01:01.927Z,81.35
2023-02-01T04:06:05.196Z,80.88
2023-02-01T04:11:08.169Z,80.88
2023-02-01T04:16:11.414Z,80.83
2023-02-01T04:21:14.225Z,80.62
2023-02-01T04:26:17.624Z,80.67
2023-02-01T04:31:26.806Z,80.72
2023-02-01T04:36:29.924Z,80.75
2023-02-01T04:41:32.936Z,80.69
2023-02-01T04:46:36.099Z,80.99
2023-02-01T04:51:41.038Z,80.97
2023-02-01T04:56:44.005Z,80.89
2023-02-01T05:01:48.922Z,81.00
2023-02-01T05:06:52.121Z,80.20
2023-02-01T05:12:13.370Z,80.11
2023-02-01T05:17:16.547Z,79.08
2023-02-01T05:22:19.518Z,78.01
2023-02-01T05:27:22.580Z,77.21
2023-02-01T05:32:25.622Z,77.27
2023-02-01T05:37:29.031Z,77.47
2023-02-01T05:42:31.981Z,77.83
2023-02-01T05:47:34.958Z,78.07
2023-02-01T05:52:37.866Z,78.49
2023-02-01T05:57:40.951Z,78.63
2023-02-01T06:02:44.042Z,79.52
2023-02-01T06:07:47.065Z,79.55
2023-02-01T06:12:50.181Z,80.17
2023-02-01T06:17:53.081Z,80.52
2023-02-01T06:22:55.887Z,80.80
2023-02-01T06:28:02.287Z,80.77
2023-02-01T06:33:05.239Z,80.98
2023-02-01T06:38:08.121Z,80.64
2023-02-01T06:43:11.062Z,80.47
2023-02-01T06:48:14.108Z,80.56
2023-02-01T06:53:17.747Z,80.69
2023-02-01T06:58:20.734Z,80.47
2023-02-01T07:03:23.709Z,80.63
2023-02-01T07:08:29.101Z,80.29
2023-02-01T07:13:32.225Z,80.00
2023-02-01T07:18:35.391Z,79.57
2023-02-01T07:23:38.981Z,76.57
2023-02-01T07:28:42.817Z,73.75
2023-02-01T07:33:46.342Z,71.59
2023-02-01T07:38:49.512Z,70.93
2023-02-01T07:43:56.637Z,70.82
2023-02-01T07:48:59.765Z,70.98
2023-02-01T07:54:02.782Z,70.82
2023-02-01T07:59:05.752Z,70.16
2023-02-01T08:04:13.674Z,70.61
2023-02-01T08:09:16.730Z,69.62
2023-02-01T08:14:19.621Z,69.90
2023-02-01T08:19:22.732Z,69.16
2023-02-01T08:24:26.000Z,67.55
2023-02-01T08:29:29.262Z,65.48
2023-02-01T08:34:35.432Z,65.03
2023-02-01T08:39:38.603Z,65.26
2023-02-01T08:44:41.546Z,63.78
2023-02-01T08:49:44.676Z,63.03
2023-02-01T08:54:48.099Z,61.75
2023-02-01T08:59:50.977Z,62.15
2023-02-01T09:04:55.027Z,60.95
2023-02-01T09:10:01.126Z,59.97
2023-02-01T09:15:08.014Z,60.15
2023-02-01T09:20:12.080Z,62.00
2023-02-01T09:25:15.249Z,62.44
2023-02-01T09:30:18.565Z,64.64
2023-02-01T09:35:21.493Z,68.71
2023-02-01T09:40:25.189Z,70.52
2023-02-01T09:45:40.415Z,69.58
2023-02-01T09:50:51.643Z,69.61
2023-02-01T09:56:21.928Z,69.03
2023-02-01T10:01:27.524Z,67.56
2023-02-01T10:07:08.314Z,65.53
2023-02-01T10:12:39.893Z,66.97
2023-02-01T10:18:20.817Z,66.59
2023-02-01T10:24:16.107Z,68.40
2023-02-01T10:29:27.081Z,68.69
2023-02-01T10:34:35.375Z,68.65
2023-02-01T10:39:38.275Z,67.92
2023-02-01T10:44:48.053Z,67.25
2023-02-01T10:50:03.862Z,66.85
2023-02-01T10:55:42.360Z,65.73
2023-02-01T11:00:54.685Z,65.69
2023-02-01T11:05:58.544Z,66.22
2023-02-01T11:11:06.985Z,68.16
2023-02-01T11:16:15.959Z,69.90
2023-02-01T11:21:18.982Z,70.82
2023-02-01T11:26:29.114Z,72.58
2023-02-01T11:31:34.673Z,74.32
2023-02-01T11:36:40.145Z,76.68
2023-02-01T11:41:59.522Z,80.05
2023-02-01T11:47:23.798Z,82.75
2023-02-01T11:52:52.716Z,85.88
2023-02-01T11:58:10.866Z,89.66
2023-02-01T12:03:30.068Z,91.32
2023-02-01T12:09:06.262Z,92.65
2023-02-01T12:14:47.262Z,93.65
2023-02-01T12:20:27.351Z,94.52
2023-02-01T12:25:42.592Z,95.40
2023-02-01T12:31:31.072Z,96.43
2023-02-01T12:37:28.128Z,97.99
2023-02-01T12:42:40.030Z,98.60
2023-02-01T12:48:24.949Z,100.00
2023-02-01T12:53:43.049Z,100.00
2023-02-01T12:58:57.081Z,100.00
2023-02-01T13:04:17.981Z,100.00
2023-02-01T13:09:26.670Z,100.00
2023-02-01T13:14:49.271Z,100.00
2023-02-01T13:20:20.150Z,100.00
2023-02-01T13:25:50.685Z,100.00
2023-02-01T13:31:12.025Z,100.00
2023-02-01T13:36:55.575Z,100.00
2023-02-01T13:42:19.985Z,100.00
2023-02-01T13:47:32.788Z,100.00
2023-02-01T13:52:46.677Z,100.00
2023-02-01T13:58:09.555Z,100.00
2023-02-01T14:03:20.215Z,99.59
2023-02-01T14:08:41.328Z,96.68
2023-02-01T14:13:46.396Z,95.82
2023-02-01T14:18:49.286Z,94.28
2023-02-01T14:23:55.314Z,96.02
2023-02-01T14:29:20.841Z,97.80
2023-02-01T14:34:44.184Z,98.65
2023-02-01T14:39:47.131Z,99.61
2023-02-01T14:44:58.738Z,100.00
2023-02-01T14:50:13.664Z,100.00
2023-02-01T14:55:30.310Z,100.00
2023-02-01T15:00:34.335Z,100.00
2023-02-01T15:05:37.226Z,100.00
2023-02-01T15:10:49.625Z,100.00
2023-02-01T15:16:16.182Z,100.00
2023-02-01T15:21:28.523Z,100.00
2023-02-01T15:26:35.598Z,100.00
2023-02-01T15:31:46.079Z,99.99
2023-02-01T15:37:02.152Z,99.74
2023-02-01T15:42:19.796Z,99.35
2023-02-01T15:47:31.771Z,99.18
2023-02-01T15:52:42.534Z,98.98
2023-02-01T15:57:46.115Z,98.88
2023-02-01T16:02:59.587Z,98.11
2023-02-01T16:08:21.408Z,97.46
2023-02-01T16:13:24.392Z,97.61
2023-02-01T16:18:27.171Z,97.31
2023-02-01T16:23:31.544Z,96.32
2023-02-01T16:28:35.902Z,96.17
2023-02-01T16:33:38.839Z,95.66
2023-02-01T16:38:41.630Z,95.86
2023-02-01T16:43:45.140Z,96.96
2023-02-01T16:48:56.909Z,97.37
2023-02-01T16:54:02.032Z,97.85
2023-02-01T16:59:05.182Z,97.84
2023-02-01T17:04:10.044Z,98.10
2023-02-01T17:09:13.086Z,98.35
2023-02-01T17:14:20.457Z,96.94
2023-02-01T17:19:24.715Z,96.48
2023-02-01T17:24:46.602Z,96.01
2023-02-01T17:29:51.874Z,95.71
2023-02-01T17:34:54.764Z,94.65
2023-02-01T17:39:58.438Z,94.05
2023-02-01T17:45:32.073Z,93.15
2023-02-01T17:50:39.256Z,92.22
2023-02-01T17:55:46.355Z,91.52
2023-02-01T18:00:49.743Z,90.97
2023-02-01T18:05:55.952Z,89.85
2023-02-01T18:11:01.469Z,88.39
2023-02-01T18:16:04.906Z,87.35
2023-02-01T18:21:09.520Z,87.31
2023-02-01T18:26:15.464Z,86.64
2023-02-01T18:31:29.878Z,86.08
2023-02-01T18:36:33.289Z,86.30
2023-02-01T18:41:37.004Z,86.13
2023-02-01T18:46:39.908Z,85.88
2023-02-01T18:51:43.594Z,85.74
2023-02-01T18:56:46.610Z,86.36
2023-02-01T19:01:49.568Z,87.11
2023-02-01T19:06:53.194Z,86.53
2023-02-01T19:11:56.339Z,85.88
2023-02-01T19:16:59.814Z,85.87
2023-02-01T19:22:04.296Z,84.89
2023-02-01T19:27:09.139Z,84.07
2023-02-01T19:32:13.911Z,83.60
2023-02-01T19:37:17.324Z,83.60
2023-02-01T19:42:20.616Z,82.80
2023-02-01T19:47:23.742Z,81.59
2023-02-01T19:52:27.329Z,81.14
2023-02-01T19:57:31.144Z,81.10
2023-02-01T20:02:33.872Z,80.54
2023-02-01T20:07:36.783Z,80.24
2023-02-01T20:12:40.501Z,80.13
2023-02-01T20:17:44.342Z,80.35
2023-02-01T20:22:47.179Z,80.40
2023-02-01T20:27:52.143Z,81.33
2023-02-01T20:32:55.110Z,83.11
2023-02-01T20:37:59.169Z,85.70
2023-02-01T20:43:02.208Z,87.69
2023-02-01T20:48:05.620Z,88.90
2023-02-01T20:53:11.084Z,89.87
2023-02-01T20:58:15.979Z,90.65
2023-02-01T21:03:19.120Z,91.28
2023-02-01T21:08:23.857Z,91.49
2023-02-01T21:13:30.646Z,91.32
2023-02-01T21:18:33.682Z,91.29
2023-02-01T21:23:47.864Z,91.17
2023-02-01T21:28:52.662Z,91.04
2023-02-01T21:33:55.618Z,91.51
2023-02-01T21:39:03.685Z,92.63
2023-02-01T21:44:07.296Z,94.18
2023-02-01T21:49:10.916Z,94.99
2023-02-01T21:54:14.420Z,96.11
2023-02-01T21:59:17.552Z,96.95
2023-02-01T22:04:20.500Z,98.10
2023-02-01T22:09:26.262Z,98.53
2023-02-01T22:14:29.492Z,98.95
2023-02-01T22:19:32.543Z,99.05
2023-02-01T22:24:36.103Z,98.82
2023-02-01T22:29:39.088Z,98.36
2023-02-01T22:34:42.713Z,97.53
2023-02-01T22:39:45.757Z,96.12
2023-02-01T22:44:48.736Z,94.77
2023-02-01T22:49:51.583Z,93.38
2023-02-01T22:54:55.234Z,93.14
2023-02-01T22:59:58.271Z,92.26
2023-02-01T23:05:01.212Z,90.79
2023-02-01T23:10:05.067Z,89.62
2023-02-01T23:15:08.956Z,90.57
2023-02-01T23:20:18.600Z,91.60
2023-02-01T23:25:21.422Z,92.34
2023-02-01T23:30:24.352Z,92.74
2023-02-01T23:35:28.798Z,93.04
2023-02-01T23:40:31.937Z,93.82
2023-02-01T23:45:34.884Z,93.91
2023-02-01T23:50:37.964Z,94.24
2023-02-01T23:55:40.847Z,93.66
